sensor_id;sensor_type;location;lat;lon;timestamp;pressure;altitude;pressure_sealevel;temperature;humidity
42705;BME280;28342;42.594;23.414;2022-08-27T00:00:05;94222.97;;;17.69;69.79
42705;BME280;28342;42.594;23.414;2022-08-27T00:02:33;94215.09;;;17.60;70.23
42705;BME280;28342;42.594;23.414;2022-08-27T00:05:03;94211.19;;;17.54;71.19
42705;BME280;28342;42.594;23.414;2022-08-27T00:07:29;94222.75;;;17.58;71.27
42705;BME280;28342;42.594;23.414;2022-08-27T00:09:54;94226.91;;;17.56;71.32
42705;BME280;28342;42.594;23.414;2022-08-27T00:12:20;94224.00;;;17.65;71.30
42705;BME280;28342;42.594;23.414;2022-08-27T00:14:45;94219.50;;;17.69;70.00
42705;BME280;28342;42.594;23.414;2022-08-27T00:17:11;94215.38;;;17.52;70.49
42705;BME280;28342;42.594;23.414;2022-08-27T00:19:37;94225.72;;;17.53;71.36
42705;BME280;28342;42.594;23.414;2022-08-27T00:22:04;94208.69;;;17.42;71.30
42705;BME280;28342;42.594;23.414;2022-08-27T00:24:30;94218.81;;;17.52;71.90
42705;BME280;28342;42.594;23.414;2022-08-27T00:26:56;94214.28;;;17.56;71.26
42705;BME280;28342;42.594;23.414;2022-08-27T00:29:21;94213.75;;;17.47;71.93
42705;BME280;28342;42.594;23.414;2022-08-27T00:31:47;94203.72;;;17.44;72.06
42705;BME280;28342;42.594;23.414;2022-08-27T00:34:12;94211.84;;;17.48;71.40
42705;BME280;28342;42.594;23.414;2022-08-27T00:36:39;94201.19;;;17.51;71.81
42705;BME280;28342;42.594;23.414;2022-08-27T00:39:04;94201.03;;;17.44;71.92
42705;BME280;28342;42.594;23.414;2022-08-27T00:41:30;94202.19;;;17.43;71.77
42705;BME280;28342;42.594;23.414;2022-08-27T00:43:57;94207.25;;;17.48;70.47
42705;BME280;28342;42.594;23.414;2022-08-27T00:46:48;94207.44;;;17.36;72.43
42705;BME280;28342;42.594;23.414;2022-08-27T00:49:30;94195.03;;;17.28;72.37
42705;BME280;28342;42.594;23.414;2022-08-27T00:52:05;94214.56;;;17.28;72.96
42705;BME280;28342;42.594;23.414;2022-08-27T00:54:31;94213.94;;;17.35;72.33
42705;BME280;28342;42.594;23.414;2022-08-27T00:56:58;94194.03;;;17.36;71.15
42705;BME280;28342;42.594;23.414;2022-08-27T00:59:26;94205.13;;;17.35;72.27
42705;BME280;28342;42.594;23.414;2022-08-27T01:01:54;94195.22;;;17.16;73.01
42705;BME280;28342;42.594;23.414;2022-08-27T01:04:39;94206.03;;;17.23;73.03
42705;BME280;28342;42.594;23.414;2022-08-27T01:07:07;94205.34;;;17.26;73.08
42705;BME280;28342;42.594;23.414;2022-08-27T01:09:34;94207.03;;;17.34;71.62
42705;BME280;28342;42.594;23.414;2022-08-27T01:12:00;94196.94;;;17.27;72.14
42705;BME280;28342;42.594;23.414;2022-08-27T01:14:26;94169.81;;;17.10;72.38
42705;BME280;28342;42.594;23.414;2022-08-27T01:16:55;94187.44;;;17.11;73.06
42705;BME280;28342;42.594;23.414;2022-08-27T01:19:32;94195.63;;;17.18;73.62
42705;BME280;28342;42.594;23.414;2022-08-27T01:22:06;94194.50;;;17.19;73.25
42705;BME280;28342;42.594;23.414;2022-08-27T01:24:41;94193.41;;;17.00;74.92
42705;BME280;28342;42.594;23.414;2022-08-27T01:27:10;94179.28;;;16.84;74.52
42705;BME280;28342;42.594;23.414;2022-08-27T01:29:38;94191.34;;;16.94;74.27
42705;BME280;28342;42.594;23.414;2022-08-27T01:32:16;94194.81;;;16.94;74.75
42705;BME280;28342;42.594;23.414;2022-08-27T01:34:42;94205.09;;;16.92;74.98
42705;BME280;28342;42.594;23.414;2022-08-27T01:37:11;94186.22;;;16.85;74.62
42705;BME280;28342;42.594;23.414;2022-08-27T01:39:38;94201.00;;;16.98;74.51
42705;BME280;28342;42.594;23.414;2022-08-27T01:42:26;94201.66;;;16.92;74.35
42705;BME280;28342;42.594;23.414;2022-08-27T01:44:54;94182.59;;;16.97;74.08
42705;BME280;28342;42.594;23.414;2022-08-27T01:47:22;94201.16;;;17.06;73.92
42705;BME280;28342;42.594;23.414;2022-08-27T01:49:48;94203.09;;;17.09;73.49
42705;BME280;28342;42.594;23.414;2022-08-27T01:52:17;94194.09;;;16.97;73.72
42705;BME280;28342;42.594;23.414;2022-08-27T01:54:44;94205.78;;;17.09;74.05
42705;BME280;28342;42.594;23.414;2022-08-27T01:57:10;94204.94;;;17.05;73.74
42705;BME280;28342;42.594;23.414;2022-08-27T01:59:37;94200.53;;;16.93;74.04
42705;BME280;28342;42.594;23.414;2022-08-27T02:02:03;94199.53;;;17.01;73.36
42705;BME280;28342;42.594;23.414;2022-08-27T02:04:29;94213.25;;;16.99;73.70
42705;BME280;28342;42.594;23.414;2022-08-27T02:06:54;94199.31;;;16.90;74.21
42705;BME280;28342;42.594;23.414;2022-08-27T02:09:20;94212.31;;;16.88;73.20
42705;BME280;28342;42.594;23.414;2022-08-27T02:11:46;94205.31;;;16.84;73.70
42705;BME280;28342;42.594;23.414;2022-08-27T02:14:11;94206.88;;;16.85;73.22
42705;BME280;28342;42.594;23.414;2022-08-27T02:16:37;94205.66;;;16.82;74.60
42705;BME280;28342;42.594;23.414;2022-08-27T02:19:04;94210.06;;;16.71;75.06
42705;BME280;28342;42.594;23.414;2022-08-27T02:21:30;94188.72;;;16.59;75.14
42705;BME280;28342;42.594;23.414;2022-08-27T02:23:55;94212.03;;;16.74;75.17
42705;BME280;28342;42.594;23.414;2022-08-27T02:26:21;94207.44;;;16.75;75.30
42705;BME280;28342;42.594;23.414;2022-08-27T02:28:47;94200.47;;;16.70;75.23
42705;BME280;28342;42.594;23.414;2022-08-27T02:31:12;94190.28;;;16.60;75.66
42705;BME280;28342;42.594;23.414;2022-08-27T02:33:38;94206.50;;;16.67;75.27
42705;BME280;28342;42.594;23.414;2022-08-27T02:36:04;94219.53;;;16.68;75.35
42705;BME280;28342;42.594;23.414;2022-08-27T02:38:29;94216.09;;;16.68;75.42
42705;BME280;28342;42.594;23.414;2022-08-27T02:40:55;94219.22;;;16.70;74.70
42705;BME280;28342;42.594;23.414;2022-08-27T02:43:20;94216.41;;;16.66;75.13
42705;BME280;28342;42.594;23.414;2022-08-27T02:45:46;94231.56;;;16.59;75.13
42705;BME280;28342;42.594;23.414;2022-08-27T02:48:12;94227.78;;;16.60;75.23
42705;BME280;28342;42.594;23.414;2022-08-27T02:50:38;94231.34;;;16.48;76.06
42705;BME280;28342;42.594;23.414;2022-08-27T02:53:04;94233.41;;;16.55;76.11
42705;BME280;28342;42.594;23.414;2022-08-27T02:55:30;94230.16;;;16.65;75.35
42705;BME280;28342;42.594;23.414;2022-08-27T02:57:57;94217.03;;;16.40;76.33
42705;BME280;28342;42.594;23.414;2022-08-27T03:00:24;94233.59;;;16.46;76.02
42705;BME280;28342;42.594;23.414;2022-08-27T03:02:49;94234.38;;;16.47;76.27
42705;BME280;28342;42.594;23.414;2022-08-27T03:05:17;94224.19;;;16.36;76.50
42705;BME280;28342;42.594;23.414;2022-08-27T03:07:43;94234.91;;;16.36;76.77
42705;BME280;28342;42.594;23.414;2022-08-27T03:10:10;94227.22;;;16.35;76.92
42705;BME280;28342;42.594;23.414;2022-08-27T03:12:36;94236.56;;;16.41;76.64
42705;BME280;28342;42.594;23.414;2022-08-27T03:15:07;94226.66;;;16.26;75.60
42705;BME280;28342;42.594;23.414;2022-08-27T03:17:33;94240.63;;;16.35;75.13
42705;BME280;28342;42.594;23.414;2022-08-27T03:20:17;94250.28;;;16.39;76.02
42705;BME280;28342;42.594;23.414;2022-08-27T03:22:43;94240.44;;;16.43;76.04
42705;BME280;28342;42.594;23.414;2022-08-27T03:25:10;94250.97;;;16.36;76.43
42705;BME280;28342;42.594;23.414;2022-08-27T03:27:36;94249.59;;;16.42;75.86
42705;BME280;28342;42.594;23.414;2022-08-27T03:30:08;94208.19;;;16.21;76.01
42705;BME280;28342;42.594;23.414;2022-08-27T03:32:35;94243.56;;;16.30;75.77
42705;BME280;28342;42.594;23.414;2022-08-27T03:35:00;94253.66;;;16.36;76.17
42705;BME280;28342;42.594;23.414;2022-08-27T03:37:26;94251.53;;;16.26;76.50
42705;BME280;28342;42.594;23.414;2022-08-27T03:39:53;94257.72;;;16.30;76.00
42705;BME280;28342;42.594;23.414;2022-08-27T03:42:19;94251.66;;;16.33;76.64
42705;BME280;28342;42.594;23.414;2022-08-27T03:44:45;94250.66;;;16.22;77.20
42705;BME280;28342;42.594;23.414;2022-08-27T03:47:11;94255.16;;;16.18;77.44
42705;BME280;28342;42.594;23.414;2022-08-27T03:49:36;94252.91;;;16.20;77.38
42705;BME280;28342;42.594;23.414;2022-08-27T03:52:02;94250.50;;;16.15;77.77
42705;BME280;28342;42.594;23.414;2022-08-27T03:54:28;94248.94;;;16.14;77.58
42705;BME280;28342;42.594;23.414;2022-08-27T03:56:55;94250.56;;;16.19;77.48
42705;BME280;28342;42.594;23.414;2022-08-27T03:59:20;94251.63;;;16.14;78.00
42705;BME280;28342;42.594;23.414;2022-08-27T04:01:46;94259.81;;;16.21;77.26
42705;BME280;28342;42.594;23.414;2022-08-27T04:04:11;94248.19;;;16.13;77.42
42705;BME280;28342;42.594;23.414;2022-08-27T04:06:37;94254.81;;;16.04;77.78
42705;BME280;28342;42.594;23.414;2022-08-27T04:09:03;94268.09;;;16.16;78.37
42705;BME280;28342;42.594;23.414;2022-08-27T04:11:32;94251.72;;;16.02;78.46
42705;BME280;28342;42.594;23.414;2022-08-27T04:13:58;94273.38;;;16.12;77.76
42705;BME280;28342;42.594;23.414;2022-08-27T04:16:24;94275.88;;;16.21;77.61
42705;BME280;28342;42.594;23.414;2022-08-27T04:18:51;94275.44;;;16.19;78.10
42705;BME280;28342;42.594;23.414;2022-08-27T04:21:17;94258.81;;;16.10;77.39
42705;BME280;28342;42.594;23.414;2022-08-27T04:23:43;94277.59;;;16.29;77.22
42705;BME280;28342;42.594;23.414;2022-08-27T04:26:09;94277.53;;;16.26;77.59
42705;BME280;28342;42.594;23.414;2022-08-27T04:28:35;94279.13;;;16.30;77.72
42705;BME280;28342;42.594;23.414;2022-08-27T04:31:02;94263.78;;;16.27;77.49
42705;BME280;28342;42.594;23.414;2022-08-27T04:33:28;94270.75;;;16.32;77.05
42705;BME280;28342;42.594;23.414;2022-08-27T04:36:03;94274.72;;;16.38;76.60
42705;BME280;28342;42.594;23.414;2022-08-27T04:38:29;94278.25;;;16.42;77.32
42705;BME280;28342;42.594;23.414;2022-08-27T04:40:55;94274.19;;;16.48;76.58
42705;BME280;28342;42.594;23.414;2022-08-27T04:43:39;94274.88;;;16.45;77.96
42705;BME280;28342;42.594;23.414;2022-08-27T04:46:04;94272.56;;;16.43;77.73
42705;BME280;28342;42.594;23.414;2022-08-27T04:48:31;94277.22;;;16.47;78.20
42705;BME280;28342;42.594;23.414;2022-08-27T04:50:56;94274.94;;;16.49;76.91
42705;BME280;28342;42.594;23.414;2022-08-27T04:53:22;94271.16;;;16.50;76.59
42705;BME280;28342;42.594;23.414;2022-08-27T04:55:50;94239.41;;;16.32;76.10
42705;BME280;28342;42.594;23.414;2022-08-27T04:58:17;94277.69;;;16.68;76.94
42705;BME280;28342;42.594;23.414;2022-08-27T05:00:55;94261.53;;;16.64;77.28
42705;BME280;28342;42.594;23.414;2022-08-27T05:03:22;94268.41;;;16.81;76.41
42705;BME280;28342;42.594;23.414;2022-08-27T05:05:49;94251.34;;;16.70;75.12
42705;BME280;28342;42.594;23.414;2022-08-27T05:08:15;94274.94;;;16.84;75.53
42705;BME280;28342;42.594;23.414;2022-08-27T05:10:50;94241.22;;;16.63;75.77
42705;BME280;28342;42.594;23.414;2022-08-27T05:13:17;94273.91;;;16.88;75.02
42705;BME280;28342;42.594;23.414;2022-08-27T05:15:44;94275.72;;;16.84;77.10
42705;BME280;28342;42.594;23.414;2022-08-27T05:18:10;94279.06;;;16.97;75.96
42705;BME280;28342;42.594;23.414;2022-08-27T05:20:45;94256.00;;;16.92;75.31
42705;BME280;28342;42.594;23.414;2022-08-27T05:23:12;94288.44;;;17.07;75.77
42705;BME280;28342;42.594;23.414;2022-08-27T05:25:42;94255.16;;;16.88;76.07
42705;BME280;28342;42.594;23.414;2022-08-27T05:28:10;94291.53;;;17.09;75.53
42705;BME280;28342;42.594;23.414;2022-08-27T05:30:40;94270.81;;;17.06;75.77
42705;BME280;28342;42.594;23.414;2022-08-27T05:33:06;94280.69;;;17.21;75.89
42705;BME280;28342;42.594;23.414;2022-08-27T05:35:39;94283.16;;;17.10;75.87
42705;BME280;28342;42.594;23.414;2022-08-27T05:38:05;94291.75;;;17.19;75.14
42705;BME280;28342;42.594;23.414;2022-08-27T05:40:30;94289.25;;;17.30;75.21
42705;BME280;28342;42.594;23.414;2022-08-27T05:42:55;94283.34;;;17.21;74.55
42705;BME280;28342;42.594;23.414;2022-08-27T05:45:21;94277.28;;;17.24;75.14
42705;BME280;28342;42.594;23.414;2022-08-27T05:47:46;94285.19;;;17.36;75.59
42705;BME280;28342;42.594;23.414;2022-08-27T05:50:12;94300.56;;;17.39;76.12
42705;BME280;28342;42.594;23.414;2022-08-27T05:52:37;94302.16;;;17.44;76.13
42705;BME280;28342;42.594;23.414;2022-08-27T05:55:02;94281.38;;;17.37;76.23
42705;BME280;28342;42.594;23.414;2022-08-27T05:57:28;94269.09;;;17.36;76.14
42705;BME280;28342;42.594;23.414;2022-08-27T05:59:54;94275.72;;;17.42;76.57
42705;BME280;28342;42.594;23.414;2022-08-27T06:02:38;94266.94;;;17.45;75.83
42705;BME280;28342;42.594;23.414;2022-08-27T06:05:04;94281.06;;;17.61;75.60
42705;BME280;28342;42.594;23.414;2022-08-27T06:07:31;94270.31;;;17.61;76.81
42705;BME280;28342;42.594;23.414;2022-08-27T06:09:57;94289.13;;;17.84;76.04
42705;BME280;28342;42.594;23.414;2022-08-27T06:12:29;94259.66;;;17.88;75.80
42705;BME280;28342;42.594;23.414;2022-08-27T06:14:59;94293.38;;;18.08;75.81
42705;BME280;28342;42.594;23.414;2022-08-27T06:17:27;94294.41;;;18.27;74.33
42705;BME280;28342;42.594;23.414;2022-08-27T06:19:53;94276.75;;;18.26;73.57
42705;BME280;28342;42.594;23.414;2022-08-27T06:22:19;94291.53;;;18.39;74.36
42705;BME280;28342;42.594;23.414;2022-08-27T06:24:44;94283.53;;;18.42;73.67
42705;BME280;28342;42.594;23.414;2022-08-27T06:27:12;94291.06;;;18.60;73.06
42705;BME280;28342;42.594;23.414;2022-08-27T06:29:39;94292.69;;;18.64;73.04
42705;BME280;28342;42.594;23.414;2022-08-27T06:32:05;94299.41;;;18.77;72.11
42705;BME280;28342;42.594;23.414;2022-08-27T06:34:30;94302.69;;;18.94;71.81
42705;BME280;28342;42.594;23.414;2022-08-27T06:36:56;94283.28;;;18.77;71.45
42705;BME280;28342;42.594;23.414;2022-08-27T06:39:21;94288.59;;;19.04;70.87
42705;BME280;28342;42.594;23.414;2022-08-27T06:41:47;94304.41;;;19.42;71.39
42705;BME280;28342;42.594;23.414;2022-08-27T06:44:14;94293.91;;;19.64;71.56
42705;BME280;28342;42.594;23.414;2022-08-27T06:46:41;94310.53;;;20.14;74.51
42705;BME280;28342;42.594;23.414;2022-08-27T06:49:24;94303.88;;;20.45;70.83
42705;BME280;28342;42.594;23.414;2022-08-27T06:51:49;94312.63;;;20.93;68.97
42705;BME280;28342;42.594;23.414;2022-08-27T06:54:16;94306.22;;;21.23;66.42
42705;BME280;28342;42.594;23.414;2022-08-27T06:57:15;94277.41;;;21.41;65.60
42705;BME280;28342;42.594;23.414;2022-08-27T06:59:57;94276.75;;;21.80;63.71
42705;BME280;28342;42.594;23.414;2022-08-27T07:03:06;94303.81;;;22.33;62.61
42705;BME280;28342;42.594;23.414;2022-08-27T07:05:33;94296.47;;;22.55;61.70
42705;BME280;28342;42.594;23.414;2022-08-27T07:07:59;94289.53;;;22.68;61.99
42705;BME280;28342;42.594;23.414;2022-08-27T07:10:25;94286.38;;;22.94;60.03
42705;BME280;28342;42.594;23.414;2022-08-27T07:12:51;94302.94;;;23.18;59.67
42705;BME280;28342;42.594;23.414;2022-08-27T07:15:17;94307.06;;;23.47;58.61
42705;BME280;28342;42.594;23.414;2022-08-27T07:17:42;94296.59;;;23.60;59.60
42705;BME280;28342;42.594;23.414;2022-08-27T07:20:12;94301.16;;;23.77;56.58
42705;BME280;28342;42.594;23.414;2022-08-27T07:22:39;94307.94;;;24.07;55.14
42705;BME280;28342;42.594;23.414;2022-08-27T07:25:06;94308.56;;;24.25;59.35
42705;BME280;28342;42.594;23.414;2022-08-27T07:27:33;94307.34;;;24.37;55.03
42705;BME280;28342;42.594;23.414;2022-08-27T07:29:58;94295.34;;;24.38;55.07
42705;BME280;28342;42.594;23.414;2022-08-27T07:32:24;94298.22;;;24.61;55.05
42705;BME280;28342;42.594;23.414;2022-08-27T07:34:49;94304.63;;;24.82;55.54
42705;BME280;28342;42.594;23.414;2022-08-27T07:37:15;94297.78;;;25.08;56.48
42705;BME280;28342;42.594;23.414;2022-08-27T07:39:41;94298.41;;;25.22;52.23
42705;BME280;28342;42.594;23.414;2022-08-27T07:42:06;94296.41;;;25.26;53.60
42705;BME280;28342;42.594;23.414;2022-08-27T07:44:50;94301.50;;;25.55;53.83
42705;BME280;28342;42.594;23.414;2022-08-27T07:47:16;94307.97;;;25.68;51.76
42705;BME280;28342;42.594;23.414;2022-08-27T07:49:42;94311.94;;;25.90;50.21
42705;BME280;28342;42.594;23.414;2022-08-27T07:52:10;94294.97;;;26.10;53.59
42705;BME280;28342;42.594;23.414;2022-08-27T07:54:43;94305.31;;;26.45;50.83
42705;BME280;28342;42.594;23.414;2022-08-27T07:57:10;94308.88;;;26.66;51.69
42705;BME280;28342;42.594;23.414;2022-08-27T07:59:35;94311.69;;;26.82;51.11
42705;BME280;28342;42.594;23.414;2022-08-27T08:02:01;94306.72;;;27.00;48.80
42705;BME280;28342;42.594;23.414;2022-08-27T08:04:26;94305.13;;;27.23;47.26
42705;BME280;28342;42.594;23.414;2022-08-27T08:06:52;94297.53;;;27.34;48.01
42705;BME280;28342;42.594;23.414;2022-08-27T08:09:19;94304.91;;;27.53;46.37
42705;BME280;28342;42.594;23.414;2022-08-27T08:11:48;94298.53;;;27.63;43.59
42705;BME280;28342;42.594;23.414;2022-08-27T08:14:17;94289.75;;;27.72;46.17
42705;BME280;28342;42.594;23.414;2022-08-27T08:16:43;94314.63;;;28.10;43.73
42705;BME280;28342;42.594;23.414;2022-08-27T08:19:09;94303.41;;;28.24;41.92
42705;BME280;28342;42.594;23.414;2022-08-27T08:21:35;94295.25;;;28.41;42.18
42705;BME280;28342;42.594;23.414;2022-08-27T08:24:02;94302.25;;;28.42;41.40
42705;BME280;28342;42.594;23.414;2022-08-27T08:26:28;94302.75;;;28.53;40.86
42705;BME280;28342;42.594;23.414;2022-08-27T08:28:54;94293.53;;;28.63;40.69
42705;BME280;28342;42.594;23.414;2022-08-27T08:31:20;94295.06;;;28.80;40.62
42705;BME280;28342;42.594;23.414;2022-08-27T08:33:50;94296.44;;;28.89;40.61
42705;BME280;28342;42.594;23.414;2022-08-27T08:36:16;94291.19;;;29.10;39.94
42705;BME280;28342;42.594;23.414;2022-08-27T08:38:43;94292.03;;;29.07;38.50
42705;BME280;28342;42.594;23.414;2022-08-27T08:41:42;94297.94;;;29.06;39.18
42705;BME280;28342;42.594;23.414;2022-08-27T08:44:16;94299.41;;;29.23;39.50
42705;BME280;28342;42.594;23.414;2022-08-27T08:46:48;94289.28;;;29.36;40.18
42705;BME280;28342;42.594;23.414;2022-08-27T08:49:47;94296.94;;;29.58;37.36
42705;BME280;28342;42.594;23.414;2022-08-27T08:52:57;94289.84;;;29.73;38.46
42705;BME280;28342;42.594;23.414;2022-08-27T09:01:01;94294.81;;;30.29;36.80
42705;BME280;28342;42.594;23.414;2022-08-27T09:03:28;94284.63;;;30.42;37.07
42705;BME280;28342;42.594;23.414;2022-08-27T09:05:58;94287.47;;;30.51;36.01
42705;BME280;28342;42.594;23.414;2022-08-27T09:08:37;94280.03;;;30.52;35.08
42705;BME280;28342;42.594;23.414;2022-08-27T09:14:01;94279.88;;;30.81;33.12
42705;BME280;28342;42.594;23.414;2022-08-27T09:16:28;94267.28;;;30.83;34.42
42705;BME280;28342;42.594;23.414;2022-08-27T09:18:53;94280.50;;;30.85;34.53
42705;BME280;28342;42.594;23.414;2022-08-27T09:21:25;94273.03;;;30.98;33.66
42705;BME280;28342;42.594;23.414;2022-08-27T09:24:14;94271.25;;;31.04;34.45
42705;BME280;28342;42.594;23.414;2022-08-27T09:26:43;94268.50;;;31.04;32.76
42705;BME280;28342;42.594;23.414;2022-08-27T09:29:11;94261.25;;;31.10;33.00
42705;BME280;28342;42.594;23.414;2022-08-27T09:31:44;94270.25;;;31.33;32.56
42705;BME280;28342;42.594;23.414;2022-08-27T09:34:10;94275.53;;;31.49;32.09
42705;BME280;28342;42.594;23.414;2022-08-27T09:36:53;94261.00;;;31.61;32.11
42705;BME280;28342;42.594;23.414;2022-08-27T09:39:27;94261.94;;;31.67;31.22
42705;BME280;28342;42.594;23.414;2022-08-27T09:41:53;94274.53;;;31.77;32.70
42705;BME280;28342;42.594;23.414;2022-08-27T09:44:19;94264.22;;;31.69;32.15
42705;BME280;28342;42.594;23.414;2022-08-27T09:46:57;94268.13;;;31.80;31.73
42705;BME280;28342;42.594;23.414;2022-08-27T09:49:24;94255.13;;;31.72;31.14
42705;BME280;28342;42.594;23.414;2022-08-27T09:51:50;94267.88;;;31.88;32.70
42705;BME280;28342;42.594;23.414;2022-08-27T09:54:38;94259.28;;;31.76;29.47
42705;BME280;28342;42.594;23.414;2022-08-27T09:57:05;94264.50;;;31.84;30.09
42705;BME280;28342;42.594;23.414;2022-08-27T09:59:50;94259.66;;;31.88;30.85
42705;BME280;28342;42.594;23.414;2022-08-27T10:02:22;94265.00;;;32.00;30.55
42705;BME280;28342;42.594;23.414;2022-08-27T10:04:55;94249.84;;;31.77;28.71
42705;BME280;28342;42.594;23.414;2022-08-27T10:10:07;94255.91;;;32.03;29.73
42705;BME280;28342;42.594;23.414;2022-08-27T10:15:11;94249.28;;;31.92;29.41
42705;BME280;28342;42.594;23.414;2022-08-27T10:17:47;94247.47;;;31.67;29.13
42705;BME280;28342;42.594;23.414;2022-08-27T10:25:28;94256.13;;;32.18;30.67
42705;BME280;28342;42.594;23.414;2022-08-27T10:36:22;94236.25;;;32.05;28.74
42705;BME280;28342;42.594;23.414;2022-08-27T10:39:03;94249.22;;;32.14;30.21
42705;BME280;28342;42.594;23.414;2022-08-27T10:41:40;94246.25;;;31.99;29.24
42705;BME280;28342;42.594;23.414;2022-08-27T10:46:47;94246.94;;;32.12;28.76
42705;BME280;28342;42.594;23.414;2022-08-27T10:52:10;94249.38;;;32.10;29.54
42705;BME280;28342;42.594;23.414;2022-08-27T10:57:24;94237.81;;;31.84;28.31
42705;BME280;28342;42.594;23.414;2022-08-27T11:02:41;94241.84;;;31.92;29.77
42705;BME280;28342;42.594;23.414;2022-08-27T11:05:15;94241.53;;;31.68;29.20
42705;BME280;28342;42.594;23.414;2022-08-27T11:07:48;94219.06;;;31.73;30.50
42705;BME280;28342;42.594;23.414;2022-08-27T11:10:22;94239.72;;;31.96;30.08
42705;BME280;28342;42.594;23.414;2022-08-27T11:12:54;94241.06;;;31.92;28.32
42705;BME280;28342;42.594;23.414;2022-08-27T11:15:37;94232.34;;;31.84;29.90
42705;BME280;28342;42.594;23.414;2022-08-27T11:18:39;94225.91;;;31.47;27.53
42705;BME280;28342;42.594;23.414;2022-08-27T11:23:45;94232.13;;;31.47;28.88
42705;BME280;28342;42.594;23.414;2022-08-27T11:26:12;94229.22;;;31.42;29.07
42705;BME280;28342;42.594;23.414;2022-08-27T11:28:50;94223.00;;;31.50;29.65
42705;BME280;28342;42.594;23.414;2022-08-27T11:31:39;94205.44;;;31.39;28.84
42705;BME280;28342;42.594;23.414;2022-08-27T11:34:29;94202.88;;;31.44;28.64
42705;BME280;28342;42.594;23.414;2022-08-27T11:37:25;94210.56;;;31.59;29.36
42705;BME280;28342;42.594;23.414;2022-08-27T11:42:43;94211.75;;;31.79;29.22
42705;BME280;28342;42.594;23.414;2022-08-27T11:47:57;94207.56;;;31.97;27.78
42705;BME280;28342;42.594;23.414;2022-08-27T11:50:28;94211.25;;;32.03;27.21
42705;BME280;28342;42.594;23.414;2022-08-27T11:53:01;94207.53;;;31.88;27.08
42705;BME280;28342;42.594;23.414;2022-08-27T12:00:40;94194.28;;;31.95;26.32
42705;BME280;28342;42.594;23.414;2022-08-27T12:03:25;94189.59;;;32.05;26.79
42705;BME280;28342;42.594;23.414;2022-08-27T12:13:54;94178.84;;;32.29;26.99
42705;BME280;28342;42.594;23.414;2022-08-27T12:19:06;94181.78;;;32.53;26.60
42705;BME280;28342;42.594;23.414;2022-08-27T12:29:51;94176.00;;;32.78;28.81
42705;BME280;28342;42.594;23.414;2022-08-27T12:32:25;94172.66;;;32.83;26.31
42705;BME280;28342;42.594;23.414;2022-08-27T12:35:14;94171.13;;;32.91;26.19
42705;BME280;28342;42.594;23.414;2022-08-27T12:37:51;94172.34;;;33.09;26.92
42705;BME280;28342;42.594;23.414;2022-08-27T12:43:03;94166.50;;;33.16;27.43
42705;BME280;28342;42.594;23.414;2022-08-27T12:45:29;94161.50;;;33.05;25.43
42705;BME280;28342;42.594;23.414;2022-08-27T12:47:56;94163.00;;;33.15;25.92
42705;BME280;28342;42.594;23.414;2022-08-27T12:50:26;94168.94;;;33.23;26.60
42705;BME280;28342;42.594;23.414;2022-08-27T12:53:07;94160.72;;;33.14;26.36
42705;BME280;28342;42.594;23.414;2022-08-27T12:58:22;94167.72;;;33.42;26.91
42705;BME280;28342;42.594;23.414;2022-08-27T13:03:44;94153.28;;;32.96;24.58
42705;BME280;28342;42.594;23.414;2022-08-27T13:06:27;94158.00;;;32.68;25.28
42705;BME280;28342;42.594;23.414;2022-08-27T13:08:55;94161.66;;;32.65;26.23
42705;BME280;28342;42.594;23.414;2022-08-27T13:11:30;94150.03;;;32.43;26.97
42705;BME280;28342;42.594;23.414;2022-08-27T13:14:08;94167.91;;;32.65;27.23
42705;BME280;28342;42.594;23.414;2022-08-27T13:16:36;94133.28;;;32.59;25.89
42705;BME280;28342;42.594;23.414;2022-08-27T13:19:04;94149.75;;;32.86;27.49
42705;BME280;28342;42.594;23.414;2022-08-27T13:21:33;94149.13;;;33.01;27.48
42705;BME280;28342;42.594;23.414;2022-08-27T13:24:04;94149.47;;;32.93;25.88
42705;BME280;28342;42.594;23.414;2022-08-27T13:26:32;94143.34;;;32.71;25.22
42705;BME280;28342;42.594;23.414;2022-08-27T13:29:04;94140.59;;;32.62;25.10
42705;BME280;28342;42.594;23.414;2022-08-27T13:31:31;94140.31;;;32.51;25.23
42705;BME280;28342;42.594;23.414;2022-08-27T13:33:58;94145.28;;;32.25;25.83
42705;BME280;28342;42.594;23.414;2022-08-27T13:36:28;94136.63;;;32.35;25.61
42705;BME280;28342;42.594;23.414;2022-08-27T13:39:02;94131.13;;;32.45;26.44
42705;BME280;28342;42.594;23.414;2022-08-27T13:41:33;94143.34;;;32.71;27.09
42705;BME280;28342;42.594;23.414;2022-08-27T13:44:12;94136.94;;;32.83;25.13
42705;BME280;28342;42.594;23.414;2022-08-27T13:47:06;94147.00;;;32.95;26.28
42705;BME280;28342;42.594;23.414;2022-08-27T13:49:34;94148.84;;;32.89;25.94
42705;BME280;28342;42.594;23.414;2022-08-27T13:52:20;94149.44;;;32.66;24.77
42705;BME280;28342;42.594;23.414;2022-08-27T13:54:52;94131.44;;;32.56;26.13
42705;BME280;28342;42.594;23.414;2022-08-27T13:57:40;94132.97;;;32.66;26.42
42705;BME280;28342;42.594;23.414;2022-08-27T14:00:14;94128.09;;;32.79;26.83
42705;BME280;28342;42.594;23.414;2022-08-27T14:02:44;94144.56;;;32.97;26.80
42705;BME280;28342;42.594;23.414;2022-08-27T14:07:57;94135.88;;;32.72;25.66
42705;BME280;28342;42.594;23.414;2022-08-27T14:10:34;94150.69;;;32.83;25.90
42705;BME280;28342;42.594;23.414;2022-08-27T14:13:05;94138.75;;;32.59;25.22
42705;BME280;28342;42.594;23.414;2022-08-27T14:17:56;94156.00;;;32.32;26.98
42705;BME280;28342;42.594;23.414;2022-08-27T14:20:22;94153.03;;;32.08;28.58
42705;BME280;28342;42.594;23.414;2022-08-27T14:22:48;94156.03;;;31.92;29.32
42705;BME280;28342;42.594;23.414;2022-08-27T14:25:15;94152.13;;;31.71;30.38
42705;BME280;28342;42.594;23.414;2022-08-27T14:27:43;94163.22;;;31.67;30.64